X  CloseMetar Aviation Weather Data     ESNU Umeå

Temperature

12°C Temperature

12°C Dewpoint

100% Humidity



Wind

21 KM/H

13 MPH

 6 M/S

11 KTS



140°
South East
Current Conditions

Rain Mist Rain Mist
Pressure 993.92 (hPa) - 29.35 (in)
Visibility 3.1 (mi) - 5 (km)
Airport
Airport-code ESNU

Location Umeå 14 (km)

Metar:
ESNU 061450Z 14011KT 110V170 5000 RA BR BKN004 12/12 Q0994

Time: 2020-06-06 16:50